createdAt,value
2023-02-24T00:02:06.144Z,14.32
2023-02-24T00:04:41.465Z,14.31
2023-02-24T00:07:10.973Z,14.34
2023-02-24T00:09:39.191Z,14.30
2023-02-24T00:12:09.037Z,14.31
2023-02-24T00:14:38.001Z,14.26
2023-02-24T00:17:08.135Z,14.26
2023-02-24T00:19:38.511Z,14.26
2023-02-24T00:22:07.223Z,14.35
2023-02-24T00:24:34.682Z,14.30
2023-02-24T00:27:07.580Z,14.35
2023-02-24T00:29:37.564Z,14.28
2023-02-24T00:32:07.276Z,14.36
2023-02-24T00:34:37.595Z,14.39
2023-02-24T00:37:09.036Z,14.36
2023-02-24T00:39:41.400Z,14.28
2023-02-24T00:42:11.598Z,14.28
2023-02-24T00:44:41.204Z,14.27
2023-02-24T00:47:10.479Z,14.23
2023-02-24T00:49:42.631Z,14.27
2023-02-24T00:52:13.848Z,14.20
2023-02-24T00:54:45.931Z,14.22
2023-02-24T00:57:12.796Z,14.23
2023-02-24T00:59:39.662Z,14.10
2023-02-24T01:02:07.696Z,14.18
2023-02-24T01:04:35.342Z,14.17
2023-02-24T01:07:02.169Z,14.19
2023-02-24T01:09:31.356Z,13.85
2023-02-24T01:12:17.351Z,13.81
2023-02-24T01:14:49.617Z,13.49
2023-02-24T01:17:18.423Z,13.56
2023-02-24T01:19:47.351Z,13.24
2023-02-24T01:22:16.104Z,13.04
2023-02-24T01:24:45.078Z,12.90
2023-02-24T01:27:14.499Z,12.73
2023-02-24T01:29:41.519Z,12.43
2023-02-24T01:32:16.841Z,12.53
2023-02-24T01:34:44.171Z,11.96
2023-02-24T01:37:16.287Z,11.84
2023-02-24T01:39:45.258Z,11.75
2023-02-24T01:42:16.956Z,11.81
2023-02-24T01:44:43.779Z,11.33
2023-02-24T01:47:11.509Z,10.99
2023-02-24T01:49:42.669Z,10.99
2023-02-24T01:52:20.018Z,11.38
2023-02-24T01:54:55.170Z,11.54
2023-02-24T01:57:26.004Z,11.67
2023-02-24T02:00:02.122Z,11.62
2023-02-24T02:02:29.604Z,11.56
2023-02-24T02:05:04.913Z,11.29
2023-02-24T02:07:32.268Z,11.09
2023-02-24T02:10:03.973Z,10.82
2023-02-24T02:12:37.064Z,10.94
2023-02-24T02:15:05.956Z,10.84
2023-02-24T02:17:51.400Z,10.84
2023-02-24T02:20:42.363Z,10.75
2023-02-24T02:23:15.228Z,10.82
2023-02-24T02:25:45.185Z,10.92
2023-02-24T02:28:36.676Z,11.00
2023-02-24T02:31:16.930Z,10.79
2023-02-24T02:34:07.696Z,10.69
2023-02-24T02:37:08.234Z,10.80
2023-02-24T02:39:48.158Z,10.79
2023-02-24T02:42:30.183Z,10.77
2023-02-24T02:45:08.846Z,10.80
2023-02-24T02:47:47.872Z,10.61
2023-02-24T02:50:46.932Z,10.76
2023-02-24T02:53:27.781Z,10.75
2023-02-24T02:56:09.634Z,10.73
2023-02-24T02:58:42.250Z,10.88
2023-02-24T03:01:11.186Z,10.90
2023-02-24T03:03:45.736Z,11.03
2023-02-24T03:06:27.624Z,10.99
2023-02-24T03:09:12.442Z,11.07
2023-02-24T03:11:41.418Z,11.13
2023-02-24T03:14:12.419Z,11.13
2023-02-24T03:16:43.696Z,11.13
2023-02-24T03:19:14.509Z,11.01
2023-02-24T03:21:48.164Z,10.80
2023-02-24T03:24:15.833Z,10.76
2023-02-24T03:26:52.852Z,10.38
2023-02-24T03:30:07.479Z,10.35
2023-02-24T03:32:58.597Z,10.53
2023-02-24T03:35:31.161Z,10.60
2023-02-24T03:38:00.598Z,10.64
2023-02-24T03:40:35.987Z,10.77
2023-02-24T03:43:27.988Z,10.66
2023-02-24T03:46:00.479Z,10.78
2023-02-24T03:48:28.797Z,10.81
2023-02-24T03:50:59.390Z,10.82
2023-02-24T03:54:01.659Z,10.60
2023-02-24T03:56:45.968Z,10.72
2023-02-24T03:59:52.901Z,10.58
2023-02-24T04:02:28.611Z,10.78
2023-02-24T04:05:12.112Z,10.81
2023-02-24T04:08:00.488Z,10.77
2023-02-24T04:10:39.186Z,10.77
2023-02-24T04:13:22.664Z,10.60
2023-02-24T04:15:59.463Z,10.57
2023-02-24T04:18:31.004Z,10.45
2023-02-24T04:21:01.909Z,10.31
2023-02-24T04:23:38.728Z,10.54
2023-02-24T04:26:08.965Z,10.43
2023-02-24T04:28:36.169Z,10.25
2023-02-24T04:31:10.172Z,10.24
2023-02-24T04:33:38.664Z,10.41
2023-02-24T04:36:06.110Z,10.36
2023-02-24T04:38:37.122Z,10.38
2023-02-24T04:41:05.051Z,10.46
2023-02-24T04:43:31.859Z,10.45
2023-02-24T04:45:58.684Z,10.44
2023-02-24T04:48:25.514Z,10.49
2023-02-24T04:50:55.229Z,10.55
2023-02-24T04:53:27.200Z,10.67
2023-02-24T04:55:56.235Z,10.79
2023-02-24T04:58:28.980Z,10.63
2023-02-24T05:00:56.475Z,10.67
2023-02-24T05:03:28.231Z,10.55
2023-02-24T05:05:58.276Z,10.45
2023-02-24T05:08:27.294Z,10.53
2023-02-24T05:10:54.751Z,10.68
2023-02-24T05:13:27.234Z,10.56
2023-02-24T05:15:59.437Z,10.51
2023-02-24T05:18:29.604Z,10.51
2023-02-24T05:21:15.948Z,10.63
2023-02-24T05:23:45.421Z,10.59
2023-02-24T05:26:17.665Z,10.75
2023-02-24T05:28:52.188Z,10.51
2023-02-24T05:31:26.547Z,10.55
2023-02-24T05:33:58.954Z,10.48
2023-02-24T05:36:29.241Z,10.63
2023-02-24T05:39:04.566Z,10.69
2023-02-24T05:41:36.047Z,10.59
2023-02-24T05:44:08.675Z,10.41
2023-02-24T05:46:38.631Z,10.44
2023-02-24T05:49:11.955Z,10.42
2023-02-24T05:51:39.363Z,10.33
2023-02-24T05:54:08.791Z,10.42
2023-02-24T05:56:38.725Z,10.34
2023-02-24T05:59:11.294Z,10.16
2023-02-24T06:01:45.848Z,10.23
2023-02-24T06:04:20.941Z,10.21
2023-02-24T06:06:52.640Z,10.20
2023-02-24T06:09:23.288Z,10.12
2023-02-24T06:11:50.444Z,10.23
2023-02-24T06:14:17.365Z,10.01
2023-02-24T06:16:44.196Z,9.99
2023-02-24T06:19:12.470Z,10.15
2023-02-24T06:21:41.984Z,10.12
2023-02-24T06:24:15.329Z,10.10
2023-02-24T06:26:45.935Z,10.21
2023-02-24T06:29:17.667Z,10.25
2023-02-24T06:31:45.234Z,10.24
2023-02-24T06:34:14.020Z,10.18
2023-02-24T06:36:40.888Z,10.13
2023-02-24T06:39:08.207Z,9.91
2023-02-24T06:41:37.898Z,9.81
2023-02-24T06:44:04.750Z,9.70
2023-02-24T06:46:32.015Z,9.83
2023-02-24T06:48:58.856Z,9.81
2023-02-24T06:51:30.168Z,9.73
2023-02-24T06:53:59.543Z,9.53
2023-02-24T06:56:27.768Z,9.74
2023-02-24T06:58:56.945Z,9.52
2023-02-24T07:01:26.714Z,9.66
2023-02-24T07:04:02.365Z,9.80
2023-02-24T07:06:31.866Z,9.68
2023-02-24T07:08:59.232Z,9.72
2023-02-24T07:11:28.012Z,9.86
2023-02-24T07:13:57.554Z,10.05
2023-02-24T07:16:25.814Z,9.67
2023-02-24T07:18:57.116Z,9.64
2023-02-24T07:21:30.149Z,9.75
2023-02-24T07:23:59.089Z,9.83
2023-02-24T07:26:27.829Z,10.10
2023-02-24T07:28:56.720Z,10.16
2023-02-24T07:31:24.875Z,10.20
2023-02-24T07:34:02.042Z,10.38
2023-02-24T07:36:38.852Z,10.52
2023-02-24T07:39:09.794Z,10.64
2023-02-24T07:41:37.119Z,10.42
2023-02-24T07:44:05.892Z,10.70
2023-02-24T07:46:33.530Z,10.86
2023-02-24T07:49:01.597Z,10.69
2023-02-24T07:51:29.516Z,10.75
2023-02-24T07:53:59.520Z,10.85
2023-02-24T07:56:28.718Z,10.82
2023-02-24T07:58:59.600Z,10.98
2023-02-24T08:01:31.032Z,10.85
2023-02-24T08:04:01.484Z,10.83
2023-02-24T08:06:38.119Z,10.78
2023-02-24T08:09:21.055Z,10.84
2023-02-24T08:11:53.777Z,10.81
2023-02-24T08:14:25.611Z,10.94
2023-02-24T08:17:05.449Z,10.84
2023-02-24T08:19:39.759Z,11.10
2023-02-24T08:22:21.153Z,11.16
2023-02-24T08:24:53.599Z,11.41
2023-02-24T08:27:25.862Z,11.38
2023-02-24T08:30:03.695Z,11.65
2023-02-24T08:32:44.009Z,11.81
2023-02-24T08:35:16.346Z,11.82
2023-02-24T08:37:47.218Z,11.88
2023-02-24T08:40:32.176Z,11.89
2023-02-24T08:43:16.040Z,11.99
2023-02-24T08:45:51.930Z,11.92
2023-02-24T08:48:42.409Z,12.16
2023-02-24T08:51:22.952Z,12.12
2023-02-24T08:53:56.124Z,12.21
2023-02-24T08:56:34.413Z,12.25
2023-02-24T08:59:07.276Z,12.12
2023-02-24T09:01:39.790Z,12.13
2023-02-24T09:04:08.148Z,12.38
2023-02-24T09:06:40.094Z,12.62
2023-02-24T09:09:21.126Z,12.78
2023-02-24T09:11:59.878Z,12.73
2023-02-24T09:14:36.576Z,13.05
2023-02-24T09:17:11.130Z,13.16
2023-02-24T09:19:47.920Z,13.19
2023-02-24T09:22:31.300Z,12.63
2023-02-24T09:25:40.722Z,12.52
2023-02-24T09:28:18.708Z,12.14
2023-02-24T09:30:54.553Z,11.99
2023-02-24T09:33:29.103Z,11.93
2023-02-24T09:36:09.738Z,11.91
2023-02-24T09:38:57.788Z,11.76
2023-02-24T09:41:54.688Z,11.88
2023-02-24T09:44:27.053Z,11.78
2023-02-24T09:47:09.202Z,11.59
2023-02-24T09:49:46.939Z,11.88
2023-02-24T09:52:17.612Z,11.99
2023-02-24T09:55:18.779Z,11.99
2023-02-24T09:58:16.194Z,12.03
2023-02-24T10:01:23.068Z,12.22
2023-02-24T10:04:19.566Z,12.46
2023-02-24T10:06:57.734Z,12.39
2023-02-24T10:09:34.537Z,12.13
2023-02-24T10:12:20.620Z,12.44
2023-02-24T10:15:24.657Z,12.60
2023-02-24T10:17:58.177Z,12.88
2023-02-24T10:20:40.369Z,13.11
2023-02-24T10:23:13.044Z,13.11
2023-02-24T10:25:54.086Z,13.21
2023-02-24T10:28:57.240Z,13.30
2023-02-24T10:31:46.105Z,13.42
2023-02-24T10:34:21.524Z,13.42
2023-02-24T10:36:50.484Z,13.60
2023-02-24T10:39:26.063Z,13.75
2023-02-24T10:42:15.737Z,13.75
2023-02-24T10:45:01.933Z,13.83
2023-02-24T10:47:31.414Z,13.87
2023-02-24T10:50:01.852Z,13.90
2023-02-24T10:53:04.541Z,14.23
2023-02-24T10:55:56.033Z,14.30
2023-02-24T10:58:28.755Z,14.34
2023-02-24T11:01:12.296Z,13.89
2023-02-24T11:03:46.444Z,13.93
2023-02-24T11:06:51.503Z,13.93
2023-02-24T11:09:30.203Z,13.94
2023-02-24T11:12:18.598Z,13.87
2023-02-24T11:15:43.366Z,14.02
2023-02-24T11:18:19.523Z,14.04
2023-02-24T11:20:54.222Z,14.15
2023-02-24T11:23:29.539Z,14.18
2023-02-24T11:26:04.666Z,14.19
2023-02-24T11:28:50.425Z,14.23
2023-02-24T11:31:37.545Z,14.48
2023-02-24T11:34:18.708Z,14.63
2023-02-24T11:37:14.917Z,14.48
2023-02-24T11:40:07.456Z,14.54
2023-02-24T11:42:43.749Z,14.62
2023-02-24T11:45:13.749Z,14.55
2023-02-24T11:48:16.049Z,14.41
2023-02-24T11:51:11.521Z,14.28
2023-02-24T11:54:04.264Z,14.47
2023-02-24T11:56:44.118Z,14.27
2023-02-24T11:59:13.587Z,14.55
2023-02-24T12:01:55.464Z,14.46
2023-02-24T12:04:30.445Z,14.70
2023-02-24T12:07:14.097Z,14.44
2023-02-24T12:09:50.427Z,14.71
2023-02-24T12:12:24.414Z,14.76
2023-02-24T12:14:58.124Z,14.90
2023-02-24T12:17:44.386Z,15.03
2023-02-24T12:20:23.524Z,14.62
2023-02-24T12:22:56.525Z,14.86
2023-02-24T12:25:29.315Z,15.04
2023-02-24T12:28:10.917Z,15.19
2023-02-24T12:30:51.154Z,14.99
2023-02-24T12:33:27.982Z,14.67
2023-02-24T12:36:09.917Z,14.71
2023-02-24T12:38:55.703Z,14.52
2023-02-24T12:41:40.547Z,14.75
2023-02-24T12:44:13.273Z,14.93
2023-02-24T12:46:40.536Z,14.79
2023-02-24T12:49:27.472Z,14.75
2023-02-24T12:52:14.908Z,15.08
2023-02-24T12:54:51.598Z,15.32
2023-02-24T12:57:31.999Z,15.52
2023-02-24T13:00:06.390Z,15.58
2023-02-24T13:02:51.284Z,15.68
2023-02-24T13:05:45.573Z,15.85
2023-02-24T13:08:45.219Z,15.93
2023-02-24T13:11:43.076Z,15.91
2023-02-24T13:14:21.383Z,15.95
2023-02-24T13:16:48.334Z,15.91
2023-02-24T13:19:28.299Z,15.92
2023-02-24T13:22:03.586Z,15.92
2023-02-24T13:24:30.491Z,15.86
2023-02-24T13:27:12.527Z,16.07
2023-02-24T13:29:48.223Z,15.66
2023-02-24T13:32:34.137Z,15.74
2023-02-24T13:35:25.418Z,15.62
2023-02-24T13:37:53.652Z,15.33
2023-02-24T13:40:23.095Z,15.62
2023-02-24T13:43:01.662Z,15.38
2023-02-24T13:45:33.909Z,15.23
2023-02-24T13:48:21.808Z,15.30
2023-02-24T13:51:08.201Z,14.78
2023-02-24T13:53:40.928Z,15.22
2023-02-24T13:56:13.753Z,15.19
2023-02-24T13:59:05.237Z,15.45
2023-02-24T14:01:44.886Z,15.50
2023-02-24T14:04:25.020Z,15.62
2023-02-24T14:06:55.386Z,15.58
2023-02-24T14:09:26.999Z,15.69
2023-02-24T14:12:25.357Z,15.66
2023-02-24T14:14:53.557Z,15.70
2023-02-24T14:17:30.782Z,15.78
2023-02-24T14:20:09.570Z,15.80
2023-02-24T14:22:44.713Z,15.93
2023-02-24T14:25:12.509Z,16.02
2023-02-24T14:27:40.010Z,15.98
2023-02-24T14:30:08.261Z,16.07
2023-02-24T14:32:35.450Z,15.89
2023-02-24T14:35:02.257Z,15.96
2023-02-24T14:37:31.234Z,16.00
2023-02-24T14:40:05.961Z,15.92
2023-02-24T14:42:32.745Z,15.83
2023-02-24T14:44:59.731Z,15.71
2023-02-24T14:47:28.904Z,15.72
2023-02-24T14:50:02.333Z,15.79
2023-02-24T14:52:53.907Z,15.70
2023-02-24T14:55:32.839Z,15.56
2023-02-24T14:58:18.958Z,15.53
2023-02-24T15:00:53.625Z,15.62
2023-02-24T15:03:29.479Z,15.58
2023-02-24T15:05:59.990Z,15.68
2023-02-24T15:08:29.394Z,15.47
2023-02-24T15:10:56.409Z,15.48
2023-02-24T15:13:37.771Z,15.48
2023-02-24T15:16:27.058Z,15.31
2023-02-24T15:19:01.137Z,15.30
2023-02-24T15:21:40.363Z,15.33
2023-02-24T15:24:32.428Z,15.24
2023-02-24T15:27:21.113Z,15.21
2023-02-24T15:30:02.269Z,15.27
2023-02-24T15:32:31.858Z,15.19
2023-02-24T15:34:59.407Z,15.09
2023-02-24T15:37:29.975Z,15.11
2023-02-24T15:40:05.499Z,15.10
2023-02-24T15:42:34.298Z,15.12
2023-02-24T15:45:22.065Z,15.15
2023-02-24T15:47:55.801Z,15.12
2023-02-24T15:50:23.315Z,15.23
2023-02-24T15:52:50.258Z,15.02
2023-02-24T15:55:19.566Z,15.04
2023-02-24T15:57:47.918Z,15.14
2023-02-24T16:00:21.465Z,15.18
2023-02-24T16:02:48.484Z,15.24
2023-02-24T16:05:15.856Z,15.24
2023-02-24T16:07:47.798Z,15.37
2023-02-24T16:10:19.465Z,15.25
2023-02-24T16:12:53.772Z,15.20
2023-02-24T16:15:25.607Z,15.32
2023-02-24T16:17:53.283Z,15.42
2023-02-24T16:20:37.328Z,15.40
2023-02-24T16:23:05.611Z,15.46
2023-02-24T16:25:38.401Z,15.44
2023-02-24T16:28:05.195Z,15.44
2023-02-24T16:30:32.190Z,15.25
2023-02-24T16:33:01.162Z,15.24
2023-02-24T16:35:28.446Z,15.16
2023-02-24T16:37:55.213Z,15.00
2023-02-24T16:40:30.759Z,15.03
2023-02-24T16:42:57.898Z,14.88
2023-02-24T16:45:29.648Z,14.85
2023-02-24T16:48:02.223Z,14.87
2023-02-24T16:50:33.962Z,14.88
2023-02-24T16:53:01.001Z,14.92
2023-02-24T16:55:28.042Z,14.79
2023-02-24T16:57:54.752Z,14.84
2023-02-24T17:00:24.253Z,14.84
2023-02-24T17:02:52.869Z,14.84
2023-02-24T17:05:24.726Z,14.85
2023-02-24T17:07:52.616Z,14.83
2023-02-24T17:10:21.048Z,14.73
2023-02-24T17:12:48.720Z,14.64
2023-02-24T17:15:20.609Z,14.70
2023-02-24T17:17:47.340Z,14.67
2023-02-24T17:20:16.625Z,14.69
2023-02-24T17:22:44.779Z,14.69
2023-02-24T17:25:20.484Z,14.46
2023-02-24T17:27:47.254Z,14.39
2023-02-24T17:30:18.106Z,14.44
2023-02-24T17:32:44.977Z,14.46
2023-02-24T17:35:11.782Z,14.42
2023-02-24T17:37:38.612Z,14.45
2023-02-24T17:40:06.808Z,14.42
2023-02-24T17:42:33.809Z,14.38
2023-02-24T17:45:00.536Z,14.39
2023-02-24T17:47:27.794Z,14.38
2023-02-24T17:49:54.592Z,14.31
2023-02-24T17:52:21.547Z,14.27
2023-02-24T17:54:48.255Z,14.24
2023-02-24T17:57:15.104Z,14.19
2023-02-24T17:59:48.173Z,14.18
2023-02-24T18:02:17.866Z,14.17
2023-02-24T18:04:44.689Z,14.09
2023-02-24T18:07:12.770Z,14.07
2023-02-24T18:09:39.623Z,14.02
2023-02-24T18:12:06.656Z,13.99
2023-02-24T18:14:33.477Z,14.01
2023-02-24T18:17:00.290Z,13.96
2023-02-24T18:19:27.100Z,13.95
2023-02-24T18:21:53.810Z,13.85
2023-02-24T18:24:22.800Z,13.76
2023-02-24T18:26:50.105Z,13.69
2023-02-24T18:29:16.918Z,13.60
2023-02-24T18:31:43.888Z,13.66
2023-02-24T18:34:10.811Z,13.54
2023-02-24T18:36:37.599Z,13.53
2023-02-24T18:39:05.090Z,13.48
2023-02-24T18:41:31.866Z,13.32
2023-02-24T18:43:59.296Z,13.23
2023-02-24T18:46:27.484Z,13.22
2023-02-24T18:48:55.911Z,13.22
2023-02-24T18:51:23.720Z,13.20
2023-02-24T18:53:52.798Z,13.15
2023-02-24T18:56:25.776Z,13.05
2023-02-24T18:58:56.043Z,13.02
2023-02-24T19:01:29.046Z,12.94
2023-02-24T19:03:56.781Z,12.89
2023-02-24T19:06:26.868Z,12.70
2023-02-24T19:09:06.804Z,12.72
2023-02-24T19:11:34.290Z,12.62
2023-02-24T19:14:01.098Z,12.59
2023-02-24T19:16:28.367Z,12.54
2023-02-24T19:18:57.160Z,12.64
2023-02-24T19:21:25.408Z,12.48
2023-02-24T19:23:52.625Z,12.51
2023-02-24T19:26:25.564Z,12.36
2023-02-24T19:28:53.720Z,12.19
2023-02-24T19:31:23.920Z,12.14
2023-02-24T19:34:03.148Z,12.16
2023-02-24T19:36:32.869Z,12.21
2023-02-24T19:38:59.874Z,12.22
2023-02-24T19:41:27.400Z,11.73
2023-02-24T19:43:55.454Z,11.74
2023-02-24T19:46:23.025Z,11.85
2023-02-24T19:48:50.158Z,11.76
2023-02-24T19:51:20.665Z,11.74
2023-02-24T19:53:47.649Z,11.58
2023-02-24T19:56:14.916Z,11.48
2023-02-24T19:58:41.698Z,11.52
2023-02-24T20:01:13.977Z,11.41
2023-02-24T20:03:42.991Z,11.31
2023-02-24T20:06:21.719Z,11.22
2023-02-24T20:08:48.766Z,11.13
2023-02-24T20:11:15.539Z,11.29
2023-02-24T20:13:42.257Z,11.32
2023-02-24T20:16:12.446Z,11.37
2023-02-24T20:18:40.452Z,11.38
2023-02-24T20:21:07.795Z,11.39
2023-02-24T20:23:34.654Z,11.41
2023-02-24T20:26:01.842Z,11.29
2023-02-24T20:28:29.603Z,11.31
2023-02-24T20:30:58.098Z,11.19
2023-02-24T20:33:26.366Z,11.08
2023-02-24T20:35:53.105Z,10.99
2023-02-24T20:38:20.046Z,10.99
2023-02-24T20:40:56.377Z,10.98
2023-02-24T20:43:23.217Z,10.94
2023-02-24T20:45:50.027Z,10.97
2023-02-24T20:48:16.771Z,10.93
2023-02-24T20:50:43.536Z,10.93
2023-02-24T20:53:10.242Z,10.86
2023-02-24T20:55:37.087Z,10.94
2023-02-24T20:58:03.815Z,10.98
2023-02-24T21:00:30.757Z,11.02
2023-02-24T21:02:58.004Z,10.99
2023-02-24T21:05:28.294Z,10.78
2023-02-24T21:07:55.041Z,10.96
2023-02-24T21:10:25.924Z,10.96
2023-02-24T21:12:53.192Z,10.89
2023-02-24T21:15:20.157Z,10.86
2023-02-24T21:17:46.877Z,10.89
2023-02-24T21:20:14.227Z,10.81
2023-02-24T21:22:41.555Z,10.76
2023-02-24T21:25:13.060Z,10.49
2023-02-24T21:27:39.888Z,10.56
2023-02-24T21:30:09.398Z,10.56
2023-02-24T21:32:36.444Z,10.67
2023-02-24T21:35:03.954Z,10.58
2023-02-24T21:37:30.844Z,10.50
2023-02-24T21:39:57.633Z,10.58
2023-02-24T21:42:24.452Z,10.60
2023-02-24T21:44:51.260Z,10.59
2023-02-24T21:47:18.899Z,10.65
2023-02-24T21:49:46.326Z,10.63
2023-02-24T21:52:13.453Z,10.53
2023-02-24T21:54:42.314Z,10.36
2023-02-24T21:57:09.145Z,10.36
2023-02-24T21:59:35.903Z,10.44
2023-02-24T22:02:02.745Z,10.31
2023-02-24T22:04:29.567Z,10.42
2023-02-24T22:06:56.320Z,10.47
2023-02-24T22:09:23.059Z,10.46
2023-02-24T22:11:50.126Z,10.49
2023-02-24T22:14:17.529Z,10.46
2023-02-24T22:16:44.592Z,10.39
2023-02-24T22:19:11.999Z,10.59
2023-02-24T22:21:42.103Z,10.53
2023-02-24T22:24:12.663Z,10.69
2023-02-24T22:26:40.198Z,10.55
2023-02-24T22:29:07.276Z,10.49
2023-02-24T22:31:36.523Z,10.47
2023-02-24T22:34:04.447Z,10.52
2023-02-24T22:36:36.685Z,10.55
2023-02-24T22:39:04.521Z,10.49
2023-02-24T22:41:33.916Z,10.50
2023-02-24T22:44:02.673Z,10.51
2023-02-24T22:46:32.751Z,10.39
2023-02-24T22:48:59.688Z,10.27
2023-02-24T22:51:27.604Z,10.14
2023-02-24T22:53:55.164Z,10.23
2023-02-24T22:56:27.775Z,10.18
2023-02-24T22:58:55.227Z,10.27
2023-02-24T23:01:31.324Z,10.28
2023-02-24T23:04:02.763Z,10.43
2023-02-24T23:06:30.866Z,10.36
2023-02-24T23:09:00.168Z,10.27
2023-02-24T23:11:45.690Z,10.30
2023-02-24T23:14:14.478Z,10.23
2023-02-24T23:16:44.481Z,10.22
2023-02-24T23:19:16.076Z,10.21
2023-02-24T23:21:49.753Z,10.15
2023-02-24T23:24:17.776Z,10.21
2023-02-24T23:26:45.922Z,10.17
2023-02-24T23:29:14.941Z,10.31
2023-02-24T23:31:42.258Z,10.12
2023-02-24T23:34:10.380Z,10.31
2023-02-24T23:36:39.356Z,10.29
2023-02-24T23:39:07.902Z,10.24
2023-02-24T23:41:35.998Z,10.34
2023-02-24T23:44:05.590Z,10.40
2023-02-24T23:46:33.514Z,10.28
2023-02-24T23:49:00.452Z,10.28
2023-02-24T23:51:33.353Z,10.32
2023-02-24T23:54:05.652Z,10.47
2023-02-24T23:56:32.501Z,10.43
2023-02-24T23:58:59.838Z,10.39
